Time;durP1;ratioP1;P1;durP2;ratioP2;P2;SDS_P1;SDS_P2;PMS_P1;PMS_P2;Temp;Humidity;BMP_temperature;BMP_pressure;BME280_temperature;BME280_humidity;BME280_pressure;Samples;Min_cycle;Max_cycle;Signal;HPM_P1;HPM_P2
2021/10/18 00:02:24;;;;;;;8.50;7.03;;;5.80;1.00;;;;;;5147202;27;20425;-46
2021/10/18 00:04:53;;;;;;;9.20;7.43;;;5.80;1.00;;;;;;5139055;27;20936;-48
2021/10/18 00:07:21;;;;;;;8.90;7.00;;;5.80;1.00;;;;;;5129701;27;20479;-47
2021/10/18 00:09:48;;;;;;;7.67;6.87;;;5.70;1.00;;;;;;5131119;27;20458;-48
2021/10/18 00:12:17;;;;;;;8.40;7.50;;;5.70;1.00;;;;;;5129506;27;20424;-47
2021/10/18 00:14:47;;;;;;;9.97;7.53;;;5.70;1.00;;;;;;5129147;27;20421;-51
2021/10/18 00:17:15;;;;;;;10.73;7.70;;;5.60;1.00;;;;;;5126719;27;20533;-49
2021/10/18 00:19:43;;;;;;;7.47;6.53;;;5.70;1.00;;;;;;5129164;27;20466;-46
2021/10/18 00:22:10;;;;;;;7.77;7.00;;;5.60;1.00;;;;;;5130558;27;20476;-48
2021/10/18 00:24:37;;;;;;;7.20;6.57;;;5.50;1.00;;;;;;5129347;27;20482;-45
2021/10/18 00:27:04;;;;;;;7.93;6.87;;;5.50;99.90;;;;;;5128485;27;20525;-45
2021/10/18 00:29:31;;;;;;;8.63;6.97;;;5.50;99.90;;;;;;5128451;27;20897;-45
2021/10/18 00:31:58;;;;;;;13.10;8.37;;;5.40;99.90;;;;;;5129377;27;20430;-45
2021/10/18 00:34:25;;;;;;;7.60;6.80;;;5.40;99.90;;;;;;5128453;27;20460;-48
2021/10/18 00:36:55;;;;;;;9.07;8.13;;;5.40;99.90;;;;;;5130103;27;20882;-46
2021/10/18 00:39:22;;;;;;;11.30;7.20;;;5.30;99.90;;;;;;5129449;27;20433;-49
2021/10/18 00:41:49;;;;;;;9.83;8.00;;;5.30;99.90;;;;;;5128040;27;20430;-46
2021/10/18 00:44:16;;;;;;;9.03;7.30;;;5.30;99.90;;;;;;5133402;27;20486;-49
2021/10/18 00:46:45;;;;;;;12.70;8.13;;;5.40;99.90;;;;;;5140148;27;20769;-45
2021/10/18 00:49:12;;;;;;;8.77;7.93;;;5.40;99.90;;;;;;5139781;27;20437;-46
2021/10/18 00:51:39;;;;;;;11.43;7.50;;;5.40;99.90;;;;;;5139688;27;20441;-50
2021/10/18 00:54:08;;;;;;;11.37;8.23;;;5.40;25.30;;;;;;5139810;27;20497;-48
2021/10/18 00:56:35;;;;;;;8.13;7.33;;;5.40;1.00;;;;;;5140133;27;20473;-46
2021/10/18 00:59:06;;;;;;;8.00;6.70;;;5.40;1.00;;;;;;5139943;27;20434;-49
2021/10/18 01:01:33;;;;;;;10.27;8.20;;;5.40;1.00;;;;;;5127955;27;20451;-47
2021/10/18 01:04:03;;;;;;;7.67;6.90;;;5.30;18.80;;;;;;5118873;28;20520;-47
2021/10/18 01:06:33;;;;;;;8.00;6.70;;;5.30;1.00;;;;;;5119520;28;20525;-48
2021/10/18 01:09:00;;;;;;;9.63;7.60;;;5.20;97.60;;;;;;5118634;28;20430;-48
2021/10/18 01:11:28;;;;;;;8.70;7.80;;;5.20;99.90;;;;;;5118770;28;20467;-45
2021/10/18 01:13:55;;;;;;;8.90;8.00;;;5.10;99.90;;;;;;5119128;28;20490;-46
2021/10/18 01:16:22;;;;;;;11.50;8.27;;;5.10;1.00;;;;;;5119225;28;20917;-45
2021/10/18 01:18:49;;;;;;;10.47;8.00;;;5.10;1.00;;;;;;5118930;28;20959;-45
2021/10/18 01:21:20;;;;;;;8.70;7.73;;;5.10;1.00;;;;;;5118527;28;20467;-46
2021/10/18 01:23:48;;;;;;;9.10;7.87;;;5.10;8.20;;;;;;5118478;28;20487;-52
2021/10/18 01:26:15;;;;;;;11.63;8.47;;;5.10;90.70;;;;;;5119128;28;20526;-46
2021/10/18 01:28:41;;;;;;;8.63;7.57;;;5.10;99.90;;;;;;5118217;28;20467;-46
2021/10/18 01:31:09;;;;;;;8.50;7.60;;;5.10;99.90;;;;;;5121143;27;20775;-46
2021/10/18 01:33:36;;;;;;;8.40;7.20;;;5.10;99.90;;;;;;5127290;27;20523;-46
2021/10/18 01:36:03;;;;;;;10.00;8.50;;;5.10;99.90;;;;;;5130273;27;20921;-50
2021/10/18 01:38:32;;;;;;;8.90;8.07;;;5.10;99.90;;;;;;5139388;27;20461;-50
2021/10/18 01:40:59;;;;;;;10.40;9.03;;;5.00;84.10;;;;;;5121014;27;20460;-46
2021/10/18 01:43:26;;;;;;;8.30;7.50;;;5.00;99.90;;;;;;5118273;28;20488;-45
2021/10/18 01:45:53;;;;;;;8.97;8.07;;;5.00;99.90;;;;;;5118347;28;20869;-46
2021/10/18 01:48:22;;;;;;;10.50;8.43;;;4.90;99.90;;;;;;5125820;27;20520;-47
2021/10/18 01:50:49;;;;;;;9.07;7.90;;;4.90;82.20;;;;;;5138943;27;20430;-48
2021/10/18 01:53:16;;;;;;;12.50;9.20;;;4.90;56.80;;;;;;5139074;27;20478;-47
2021/10/18 01:55:45;;;;;;;8.83;7.93;;;4.90;1.00;;;;;;5138473;27;20472;-48
2021/10/18 01:58:12;;;;;;;10.70;7.60;;;4.90;36.80;;;;;;5138795;27;20832;-46
2021/10/18 02:00:39;;;;;;;12.23;7.80;;;4.90;99.90;;;;;;5134210;27;20882;-47
2021/10/18 02:03:06;;;;;;;11.23;7.37;;;4.90;91.10;;;;;;5117752;28;20455;-49
2021/10/18 02:05:34;;;;;;;8.60;7.40;;;4.80;1.00;;;;;;5126417;27;20524;-48
2021/10/18 02:08:01;;;;;;;8.53;6.87;;;4.80;1.00;;;;;;5138602;27;20713;-49
2021/10/18 02:10:31;;;;;;;10.90;7.90;;;4.80;1.00;;;;;;5138667;27;20921;-47
2021/10/18 02:13:02;;;;;;;8.20;7.40;;;4.80;11.00;;;;;;5138098;27;20458;-49
2021/10/18 02:15:29;;;;;;;10.10;8.70;;;4.70;99.90;;;;;;5138295;27;20479;-48
2021/10/18 02:17:56;;;;;;;9.70;8.73;;;4.70;99.90;;;;;;5138257;27;20552;-48
2021/10/18 02:20:23;;;;;;;8.87;7.97;;;4.60;14.00;;;;;;5138709;27;20738;-51
2021/10/18 02:22:50;;;;;;;9.40;7.67;;;4.60;96.30;;;;;;5138721;27;20445;-47
2021/10/18 02:25:17;;;;;;;9.93;8.07;;;4.60;99.90;;;;;;5138056;27;20498;-50
2021/10/18 02:27:44;;;;;;;14.70;8.77;;;4.70;99.90;;;;;;5138376;27;20558;-49
2021/10/18 02:30:14;;;;;;;8.70;7.70;;;4.60;99.90;;;;;;5138362;27;20437;-48
2021/10/18 02:32:41;;;;;;;9.47;7.30;;;4.50;99.90;;;;;;5138249;27;20433;-45
2021/10/18 02:35:09;;;;;;;9.83;8.10;;;4.50;99.90;;;;;;5137945;27;20516;-46
2021/10/18 02:37:36;;;;;;;8.40;7.60;;;4.50;99.90;;;;;;5138194;27;20526;-50
2021/10/18 02:40:04;;;;;;;10.30;7.47;;;4.50;99.90;;;;;;5126126;28;20487;-48
2021/10/18 02:42:31;;;;;;;9.90;8.37;;;4.50;99.90;;;;;;5117604;28;20514;-47
2021/10/18 02:44:58;;;;;;;9.90;8.07;;;4.50;99.90;;;;;;5117020;28;20523;-50
2021/10/18 02:47:26;;;;;;;10.77;8.27;;;4.50;99.90;;;;;;5117287;28;20460;-47
2021/10/18 02:49:53;;;;;;;8.67;7.83;;;4.50;99.90;;;;;;5117726;28;20438;-52
2021/10/18 02:52:20;;;;;;;10.30;8.57;;;4.50;99.90;;;;;;5117822;28;20472;-46
2021/10/18 02:54:47;;;;;;;9.17;7.37;;;4.40;99.90;;;;;;5117287;28;20548;-48
2021/10/18 02:57:14;;;;;;;10.30;8.27;;;4.40;99.90;;;;;;5117082;28;20533;-50
2021/10/18 02:59:41;;;;;;;11.30;8.67;;;4.40;99.90;;;;;;5117636;28;20506;-51
2021/10/18 03:02:08;;;;;;;9.50;7.73;;;4.40;99.90;;;;;;5100230;28;20435;-46
2021/10/18 03:04:37;;;;;;;10.87;8.40;;;4.40;99.90;;;;;;5096179;28;20478;-49
2021/10/18 03:07:04;;;;;;;9.57;8.03;;;4.50;99.90;;;;;;5096991;28;20523;-45
2021/10/18 03:09:31;;;;;;;12.03;8.33;;;4.60;99.90;;;;;;5100043;28;20518;-49
2021/10/18 03:11:58;;;;;;;10.20;8.67;;;4.60;99.90;;;;;;5101096;28;20456;-50
2021/10/18 03:14:25;;;;;;;10.47;9.23;;;4.60;99.90;;;;;;5100969;28;20465;-49
2021/10/18 03:16:52;;;;;;;10.10;7.77;;;4.50;99.90;;;;;;5101067;28;20740;-55
2021/10/18 03:19:19;;;;;;;9.00;8.13;;;4.50;99.90;;;;;;5100711;28;20907;-49
2021/10/18 03:21:47;;;;;;;9.57;8.50;;;4.50;99.90;;;;;;5100635;28;20482;-48
2021/10/18 03:24:14;;;;;;;9.53;8.50;;;4.50;99.90;;;;;;5100858;28;20463;-50
2021/10/18 03:26:41;;;;;;;9.80;8.33;;;4.50;99.90;;;;;;5100660;28;20501;-54
2021/10/18 03:29:08;;;;;;;15.07;8.23;;;4.60;99.90;;;;;;5100516;28;20460;-54
2021/10/18 03:31:37;;;;;;;11.20;8.20;;;4.60;99.90;;;;;;5100303;28;20502;-53
2021/10/18 03:34:05;;;;;;;12.50;7.80;;;4.60;99.90;;;;;;5100020;28;20530;-50
2021/10/18 03:36:32;;;;;;;8.67;7.77;;;4.60;99.90;;;;;;5100418;28;20517;-51
2021/10/18 03:39:01;;;;;;;11.73;8.30;;;4.70;99.90;;;;;;5106010;27;20461;-48
2021/10/18 03:41:28;;;;;;;9.37;7.70;;;4.70;99.90;;;;;;5141461;27;20502;-53
2021/10/18 03:43:54;;;;;;;9.13;8.23;;;4.70;99.90;;;;;;5141266;27;20943;-53
2021/10/18 03:46:21;;;;;;;10.87;8.00;;;4.70;99.90;;;;;;5141370;27;20754;-51
2021/10/18 03:48:48;;;;;;;9.67;8.63;;;4.70;99.90;;;;;;5141339;27;20509;-51
2021/10/18 03:51:16;;;;;;;14.33;9.17;;;4.70;99.90;;;;;;5141015;27;20436;-50
2021/10/18 03:53:43;;;;;;;11.83;8.87;;;4.60;99.90;;;;;;5141368;27;20553;-54
2021/10/18 03:56:11;;;;;;;9.07;8.17;;;4.60;99.90;;;;;;5141138;27;20962;-51
2021/10/18 03:58:38;;;;;;;8.90;8.00;;;4.50;99.90;;;;;;5141263;27;20494;-50
2021/10/18 04:01:09;;;;;;;10.40;7.80;;;4.50;99.90;;;;;;5132515;27;20539;-51
2021/10/18 04:03:36;;;;;;;9.73;8.73;;;4.50;99.90;;;;;;5120586;28;20517;-55
2021/10/18 04:06:04;;;;;;;9.03;8.10;;;4.50;99.90;;;;;;5120118;28;20860;-47
2021/10/18 04:08:32;;;;;;;9.47;8.50;;;4.50;99.90;;;;;;5120619;28;20459;-49
2021/10/18 04:11:00;;;;;;;11.03;9.50;;;4.40;99.90;;;;;;5120296;28;20438;-49
2021/10/18 04:13:29;;;;;;;10.67;8.90;;;4.40;99.90;;;;;;5120573;28;20434;-52
2021/10/18 04:15:56;;;;;;;11.77;10.50;;;4.50;99.90;;;;;;5119974;28;20456;-49
2021/10/18 04:18:23;;;;;;;10.43;9.00;;;4.40;99.90;;;;;;5120222;28;20459;-52
2021/10/18 04:20:51;;;;;;;9.10;8.10;;;4.40;99.90;;;;;;5118705;28;20468;-49
2021/10/18 04:23:21;;;;;;;9.83;7.83;;;4.40;99.90;;;;;;5119952;28;20488;-51
2021/10/18 04:25:48;;;;;;;11.07;8.70;;;4.40;99.90;;;;;;5119686;28;20530;-54
2021/10/18 04:28:15;;;;;;;11.13;9.90;;;4.40;99.90;;;;;;5120150;28;20793;-47
2021/10/18 04:30:43;;;;;;;12.20;9.80;;;4.40;99.90;;;;;;5120021;28;20524;-47
2021/10/18 04:33:10;;;;;;;11.40;8.97;;;4.40;99.90;;;;;;5119716;28;20459;-49
2021/10/18 04:35:37;;;;;;;10.03;8.90;;;4.40;99.90;;;;;;5119587;28;20547;-50
2021/10/18 04:38:05;;;;;;;11.67;9.50;;;4.50;99.90;;;;;;5119720;28;20464;-52
2021/10/18 04:40:32;;;;;;;12.63;9.63;;;4.50;99.90;;;;;;5135742;27;20458;-49
2021/10/18 04:43:02;;;;;;;11.40;9.93;;;4.50;99.90;;;;;;5140228;27;20441;-52
2021/10/18 04:45:29;;;;;;;12.47;9.23;;;4.50;99.90;;;;;;5140461;27;20522;-54
2021/10/18 04:47:57;;;;;;;12.23;8.70;;;4.50;99.90;;;;;;5140075;27;20527;-52
2021/10/18 04:50:24;;;;;;;11.23;10.13;;;4.50;99.90;;;;;;5140325;27;20515;-51
2021/10/18 04:52:51;;;;;;;12.10;10.30;;;4.40;99.90;;;;;;5140242;27;20802;-50
2021/10/18 04:55:19;;;;;;;12.23;10.10;;;4.50;99.90;;;;;;5139759;27;20451;-46
2021/10/18 04:57:53;;;;;;;11.47;10.27;;;4.50;99.90;;;;;;5139967;27;20523;-52
2021/10/18 05:00:20;;;;;;;11.60;10.00;;;4.50;99.90;;;;;;5138326;27;20783;-49
2021/10/18 05:02:47;;;;;;;10.30;9.20;;;4.40;99.90;;;;;;5119378;28;20455;-51
2021/10/18 05:05:19;;;;;;;12.50;10.37;;;4.50;99.90;;;;;;5118680;28;20495;-52
2021/10/18 05:07:46;;;;;;;11.20;10.00;;;4.50;99.90;;;;;;5118923;28;20470;-51
2021/10/18 05:10:14;;;;;;;10.10;9.10;;;4.50;99.90;;;;;;5119097;28;20767;-53
2021/10/18 05:12:41;;;;;;;12.60;11.00;;;4.50;99.90;;;;;;5119104;28;20459;-53
2021/10/18 05:15:09;;;;;;;13.63;10.10;;;4.60;99.90;;;;;;5118915;28;20455;-54
2021/10/18 05:17:36;;;;;;;12.60;10.60;;;4.60;99.90;;;;;;5118942;28;20463;-53
2021/10/18 05:20:04;;;;;;;12.60;10.27;;;4.60;99.90;;;;;;5119218;28;20499;-56
2021/10/18 05:22:32;;;;;;;14.73;10.97;;;4.60;99.90;;;;;;5118213;28;20536;-53
2021/10/18 05:24:59;;;;;;;21.80;12.30;;;4.60;99.90;;;;;;5118238;28;20527;-50
2021/10/18 05:27:26;;;;;;;13.57;12.20;;;4.60;99.90;;;;;;5118642;28;20742;-49
2021/10/18 05:29:53;;;;;;;14.03;10.90;;;4.70;99.90;;;;;;5118839;28;20500;-52
2021/10/18 05:32:20;;;;;;;15.07;11.10;;;4.70;99.90;;;;;;5118032;28;20463;-50
2021/10/18 05:34:47;;;;;;;17.03;11.10;;;4.60;99.90;;;;;;5118353;28;20459;-55
2021/10/18 05:37:24;;;;;;;13.50;11.13;;;4.60;99.90;;;;;;5118566;28;20437;-51
2021/10/18 05:39:52;;;;;;;17.20;11.60;;;4.60;99.90;;;;;;5128249;27;20473;-56
2021/10/18 05:42:20;;;;;;;13.37;12.00;;;4.60;99.90;;;;;;5138853;27;20459;-56
2021/10/18 05:44:46;;;;;;;13.90;12.17;;;4.60;99.90;;;;;;5139095;27;20497;-51
2021/10/18 05:47:14;;;;;;;14.23;10.90;;;4.60;99.90;;;;;;5138736;27;20839;-54
2021/10/18 05:49:40;;;;;;;15.87;12.17;;;4.70;99.90;;;;;;5138804;27;20437;-54
2021/10/18 05:52:08;;;;;;;16.93;11.40;;;4.60;99.90;;;;;;5138461;27;20823;-56
2021/10/18 05:54:35;;;;;;;13.40;11.90;;;4.60;99.90;;;;;;5137841;27;20486;-55
2021/10/18 05:57:05;;;;;;;22.37;11.77;;;4.60;99.90;;;;;;5137713;27;20750;-54
2021/10/18 05:59:32;;;;;;;16.43;11.20;;;4.70;99.90;;;;;;5138181;27;20439;-54
2021/10/18 06:01:59;;;;;;;20.07;13.17;;;4.70;99.90;;;;;;5122321;27;20430;-56
2021/10/18 06:04:26;;;;;;;15.83;13.60;;;4.80;99.90;;;;;;5115925;28;20829;-56
2021/10/18 06:06:56;;;;;;;19.73;13.90;;;4.90;99.90;;;;;;5115228;27;20492;-55
2021/10/18 06:09:23;;;;;;;14.53;12.30;;;5.00;99.90;;;;;;5105538;28;20439;-56
2021/10/18 06:11:50;;;;;;;16.63;12.80;;;5.00;99.90;;;;;;5097697;28;20464;-55
2021/10/18 06:14:18;;;;;;;22.87;12.80;;;5.10;99.90;;;;;;5102963;28;20515;-56
2021/10/18 06:16:45;;;;;;;15.03;12.87;;;5.10;99.90;;;;;;5097759;28;20511;-57
2021/10/18 06:19:12;;;;;;;14.30;12.80;;;5.20;99.90;;;;;;5097217;28;20561;-51
2021/10/18 06:21:41;;;;;;;19.70;13.17;;;5.20;99.90;;;;;;5113519;28;20463;-57
2021/10/18 06:24:08;;;;;;;15.23;13.53;;;5.20;99.90;;;;;;5117859;28;20463;-58
2021/10/18 06:26:35;;;;;;;18.70;14.80;;;5.30;99.90;;;;;;5117286;28;20488;-57
2021/10/18 06:29:03;;;;;;;21.40;16.33;;;5.50;99.90;;;;;;5117409;28;20766;-57
2021/10/18 06:31:31;;;;;;;25.20;15.87;;;5.60;99.90;;;;;;5111897;28;20463;-58
2021/10/18 06:33:58;;;;;;;18.87;16.20;;;5.70;99.90;;;;;;5117962;28;20463;-58
2021/10/18 06:36:28;;;;;;;21.77;17.23;;;5.70;99.90;;;;;;5118944;28;20819;-58
2021/10/18 06:38:55;;;;;;;20.87;16.27;;;5.80;99.90;;;;;;5123443;27;20504;-58
2021/10/18 06:41:22;;;;;;;20.67;15.90;;;5.90;99.90;;;;;;5116456;28;20466;-58
2021/10/18 06:43:49;;;;;;;24.53;15.03;;;6.10;99.90;;;;;;5114664;28;20436;-58
2021/10/18 06:46:15;;;;;;;17.83;15.30;;;6.20;99.90;;;;;;5117107;28;20544;-58
2021/10/18 06:48:44;;;;;;;19.70;15.83;;;6.40;99.90;;;;;;5131702;28;20523;-58
2021/10/18 06:51:11;;;;;;;20.73;15.53;;;6.50;99.90;;;;;;5130428;28;20433;-57
2021/10/18 06:53:38;;;;;;;19.70;15.40;;;6.50;99.90;;;;;;5137487;28;20549;-57
2021/10/18 06:56:06;;;;;;;20.57;15.40;;;6.60;99.90;;;;;;5137688;28;20464;-55
2021/10/18 06:58:34;;;;;;;23.60;14.97;;;6.70;99.90;;;;;;5137840;28;20728;-56
2021/10/18 07:01:01;;;;;;;20.47;14.47;;;6.70;99.90;;;;;;5128839;28;20458;-57
2021/10/18 07:03:29;;;;;;;21.10;15.10;;;6.80;99.90;;;;;;5116044;28;20437;-54
2021/10/18 07:05:59;;;;;;;22.93;15.23;;;7.00;99.90;;;;;;5115301;28;20474;-57
2021/10/18 07:08:25;;;;;;;17.03;14.30;;;7.10;99.90;;;;;;5115086;28;20459;-57
2021/10/18 07:10:52;;;;;;;16.30;13.40;;;7.10;99.90;;;;;;5117050;28;20818;-55
2021/10/18 07:13:19;;;;;;;17.93;14.13;;;7.20;99.90;;;;;;5116776;28;20494;-58
2021/10/18 07:15:46;;;;;;;18.20;14.37;;;7.50;99.90;;;;;;5116967;28;20463;-57
2021/10/18 07:18:13;;;;;;;19.53;15.73;;;7.70;99.90;;;;;;5117044;28;20494;-57
2021/10/18 07:20:43;;;;;;;17.00;14.73;;;7.70;99.90;;;;;;5132713;28;20918;-57
2021/10/18 07:23:12;;;;;;;23.23;14.73;;;7.90;99.90;;;;;;5137228;28;20498;-57
2021/10/18 07:25:41;;;;;;;16.30;13.80;;;8.10;99.90;;;;;;5131613;28;20771;-55
2021/10/18 07:28:09;;;;;;;20.10;14.93;;;8.30;99.90;;;;;;5137745;28;20459;-55
2021/10/18 07:30:38;;;;;;;16.17;13.43;;;8.40;99.90;;;;;;5137883;28;20949;-56
2021/10/18 07:33:05;;;;;;;14.97;13.40;;;8.50;99.90;;;;;;5137293;28;20438;-56
2021/10/18 07:35:33;;;;;;;18.07;14.20;;;8.60;1.00;;;;;;5137608;28;20437;-55
2021/10/18 07:38:14;;;;;;;16.80;14.43;;;8.80;1.00;;;;;;5137260;28;20463;-57
2021/10/18 07:40:41;;;;;;;15.80;13.30;;;9.10;99.90;;;;;;5119875;28;20456;-55
2021/10/18 07:43:11;;;;;;;20.47;14.60;;;9.40;99.90;;;;;;5117140;28;20455;-58
2021/10/18 07:45:38;;;;;;;15.73;13.53;;;9.60;99.90;;;;;;5117188;28;20796;-57
2021/10/18 07:48:05;;;;;;;18.70;13.40;;;9.70;99.90;;;;;;5116647;28;20554;-56
2021/10/18 07:50:34;;;;;;;17.17;15.30;;;9.90;1.00;;;;;;5116387;28;20556;-55
2021/10/18 07:53:01;;;;;;;17.87;14.00;;;10.00;1.00;;;;;;5116731;28;20491;-56
2021/10/18 07:55:34;;;;;;;18.03;13.50;;;10.20;99.90;;;;;;5119734;28;20495;-56
2021/10/18 07:58:01;;;;;;;16.00;13.63;;;10.30;99.90;;;;;;5120480;28;20549;-55
2021/10/18 08:00:33;;;;;;;15.63;12.70;;;10.50;99.90;;;;;;5117025;28;22305;-57
2021/10/18 08:03:00;;;;;;;17.03;15.20;;;10.80;99.90;;;;;;5099901;28;20463;-56
2021/10/18 08:05:27;;;;;;;15.60;13.77;;;11.00;99.90;;;;;;5108222;27;20525;-56
2021/10/18 08:07:55;;;;;;;13.73;12.47;;;11.10;8.90;;;;;;5129555;27;20493;-56
2021/10/18 08:10:28;;;;;;;15.97;13.63;;;11.10;1.00;;;;;;5130621;27;20455;-56
2021/10/18 08:12:57;;;;;;;17.43;13.37;;;11.30;1.00;;;;;;5127521;27;20489;-54
2021/10/18 08:15:26;;;;;;;14.23;12.73;;;11.50;1.00;;;;;;5127973;27;20479;-56
2021/10/18 08:17:54;;;;;;;16.03;13.50;;;11.40;1.00;;;;;;5129219;27;20550;-54
2021/10/18 08:20:21;;;;;;;17.70;13.50;;;11.50;1.00;;;;;;5130057;27;20462;-56
2021/10/18 08:22:48;;;;;;;17.23;14.60;;;11.60;1.00;;;;;;5125584;27;20901;-56
2021/10/18 08:25:16;;;;;;;18.20;14.83;;;11.80;1.00;;;;;;5129025;27;20557;-54
2021/10/18 08:27:42;;;;;;;15.40;13.37;;;11.80;1.00;;;;;;5129972;27;20451;-58
2021/10/18 08:30:13;;;;;;;16.37;13.70;;;12.00;1.00;;;;;;5128473;27;20501;-55
2021/10/18 08:32:40;;;;;;;22.40;14.37;;;12.00;1.00;;;;;;5128226;27;20505;-55
2021/10/18 08:35:12;;;;;;;15.20;12.50;;;12.20;1.00;;;;;;5124357;27;20451;-53
2021/10/18 08:40:29;;;;;;;14.77;12.80;;;12.50;1.00;;;;;;5127641;27;20434;-54
2021/10/18 08:43:00;;;;;;;18.27;13.13;;;12.70;1.00;;;;;;5128013;27;20782;-55
2021/10/18 08:45:29;;;;;;;15.30;12.47;;;12.70;1.00;;;;;;5129072;27;20454;-55
2021/10/18 08:47:56;;;;;;;15.80;12.50;;;12.60;1.00;;;;;;5128561;27;20460;-56
2021/10/18 08:50:28;;;;;;;15.50;11.90;;;12.60;1.00;;;;;;5127559;27;20484;-53
2021/10/18 08:53:02;;;;;;;13.07;11.80;;;12.70;1.00;;;;;;5128332;27;20904;-57
2021/10/18 08:55:34;;;;;;;14.10;12.70;;;12.90;1.00;;;;;;5124780;27;20744;-56
2021/10/18 08:58:01;;;;;;;12.77;11.23;;;12.90;1.00;;;;;;5127734;27;20451;-51
2021/10/18 09:00:41;;;;;;;12.10;10.80;;;12.90;1.00;;;;;;5124599;27;20456;-57
2021/10/18 09:03:19;;;;;;;17.30;13.47;;;12.90;1.00;;;;;;5127312;27;20491;-56
2021/10/18 09:05:47;;;;;;;12.57;11.23;;;12.90;1.00;;;;;;5141651;27;21045;-54
2021/10/18 09:08:34;;;;;;;16.47;11.87;;;13.10;1.00;;;;;;5149068;27;20514;-57
2021/10/18 09:11:07;;;;;;;14.03;12.30;;;13.00;1.00;;;;;;5148370;27;20904;-54
2021/10/18 09:13:35;;;;;;;15.20;13.00;;;13.10;1.00;;;;;;5146389;27;20912;-52
2021/10/18 09:16:04;;;;;;;17.13;12.60;;;13.20;1.00;;;;;;5147291;27;20511;-51
2021/10/18 09:18:33;;;;;;;17.23;11.93;;;13.40;1.00;;;;;;5145869;27;20483;-55
2021/10/18 09:21:00;;;;;;;14.20;11.10;;;13.50;1.00;;;;;;5147383;27;20454;-53
2021/10/18 09:23:36;;;;;;;12.77;11.47;;;13.60;1.00;;;;;;5144950;27;20508;-58
2021/10/18 09:26:04;;;;;;;13.73;12.00;;;13.80;1.00;;;;;;5147487;27;20492;-53
2021/10/18 09:28:32;;;;;;;11.77;9.13;;;13.80;1.00;;;;;;5145367;27;20455;-55
2021/10/18 09:31:00;;;;;;;11.30;10.10;;;13.90;1.00;;;;;;5147509;27;20462;-51
2021/10/18 09:33:32;;;;;;;14.43;10.83;;;14.00;1.00;;;;;;5149371;27;20831;-57
2021/10/18 09:36:09;;;;;;;12.33;10.70;;;14.20;1.00;;;;;;5148660;27;20450;-55
2021/10/18 09:38:36;;;;;;;10.30;8.73;;;14.40;1.00;;;;;;5146897;27;20919;-54
2021/10/18 09:41:04;;;;;;;13.93;10.73;;;14.10;1.00;;;;;;5149376;27;20926;-50
2021/10/18 09:43:37;;;;;;;12.10;9.47;;;14.00;1.00;;;;;;5147924;27;20461;-53
2021/10/18 09:46:11;;;;;;;12.73;9.23;;;14.00;1.00;;;;;;5146865;27;20493;-52
2021/10/18 10:51:29;;;;;;;9.30;8.27;;;15.80;99.90;;;;;;5137694;28;20480;-56
2021/10/18 10:54:01;;;;;;;11.30;8.17;;;15.90;99.90;;;;;;5138246;27;20968;-50
2021/10/18 10:56:43;;;;;;;10.03;9.00;;;16.00;99.90;;;;;;5146624;27;20474;-56
2021/10/18 10:59:18;;;;;;;9.57;8.50;;;16.50;99.90;;;;;;5158075;27;20457;-52
2021/10/18 11:01:57;;;;;;;11.43;8.50;;;16.20;99.90;;;;;;5140351;27;20519;-50
2021/10/18 11:04:42;;;;;;;9.73;8.73;;;16.00;99.90;;;;;;5133374;28;20487;-53
2021/10/18 11:07:15;;;;;;;11.70;9.73;;;15.90;99.90;;;;;;5116959;28;20491;-50
2021/10/18 11:09:45;;;;;;;9.17;8.27;;;15.80;99.90;;;;;;5097388;28;20493;-48
2021/10/18 11:12:28;;;;;;;8.80;7.87;;;15.70;99.90;;;;;;5110018;28;20804;-48
2021/10/18 11:14:57;;;;;;;9.30;8.40;;;15.60;99.90;;;;;;5107884;28;20550;-50
2021/10/18 11:17:27;;;;;;;10.10;9.10;;;15.70;99.90;;;;;;5116259;28;20940;-51
2021/10/18 11:20:07;;;;;;;10.07;9.03;;;16.00;99.90;;;;;;5115864;28;20464;-49
2021/10/18 11:22:37;;;;;;;11.50;9.33;;;16.20;99.90;;;;;;5116615;28;20442;-47
2021/10/18 11:25:10;;;;;;;9.00;8.10;;;16.60;99.90;;;;;;5116242;28;20774;-50
2021/10/18 11:27:41;;;;;;;9.03;7.80;;;16.70;99.90;;;;;;5116514;28;20491;-53
2021/10/18 11:30:12;;;;;;;8.93;8.10;;;17.10;99.90;;;;;;5119470;28;20481;-50
2021/10/18 11:32:39;;;;;;;9.53;7.93;;;17.40;99.90;;;;;;5120910;28;20502;-49
2021/10/18 11:35:17;;;;;;;11.13;7.87;;;17.50;99.90;;;;;;5119654;28;20459;-52
2021/10/18 11:37:56;;;;;;;9.10;7.90;;;17.60;99.90;;;;;;5119798;28;20515;-55
2021/10/18 11:40:28;;;;;;;9.27;8.17;;;17.60;99.90;;;;;;5120731;28;20474;-48
2021/10/18 11:43:00;;;;;;;11.43;8.23;;;17.50;99.90;;;;;;5120279;28;20514;-46
2021/10/18 11:45:29;;;;;;;11.23;7.30;;;17.20;99.90;;;;;;5120193;28;20521;-49
2021/10/18 11:48:04;;;;;;;9.40;8.40;;;16.90;99.90;;;;;;5119790;28;20518;-52
2021/10/18 11:50:36;;;;;;;9.37;8.23;;;16.70;99.90;;;;;;5121088;28;20458;-46
2021/10/18 11:53:10;;;;;;;11.57;8.37;;;16.30;99.90;;;;;;5120188;28;20471;-50
2021/10/18 11:55:41;;;;;;;8.10;7.33;;;15.90;99.90;;;;;;5120759;28;20517;-55
2021/10/18 11:58:08;;;;;;;10.50;9.40;;;15.90;99.90;;;;;;5120726;28;20900;-51
2021/10/18 12:00:41;;;;;;;11.27;8.47;;;16.10;99.90;;;;;;5116461;28;20448;-55
2021/10/18 12:03:10;;;;;;;9.03;7.83;;;16.20;99.90;;;;;;5099604;28;20466;-47
2021/10/18 12:05:40;;;;;;;9.30;8.27;;;16.40;99.90;;;;;;5099879;28;20492;-53
2021/10/18 12:08:08;;;;;;;12.13;8.37;;;16.70;99.90;;;;;;5100038;28;20495;-50
2021/10/18 12:10:36;;;;;;;9.23;8.30;;;17.00;99.90;;;;;;5099852;28;20503;-52
2021/10/18 12:13:08;;;;;;;9.87;8.33;;;17.50;99.90;;;;;;5099444;28;20460;-48
2021/10/18 12:15:39;;;;;;;10.87;8.17;;;17.80;99.90;;;;;;5099678;28;20833;-48
2021/10/18 12:18:07;;;;;;;9.03;8.10;;;18.00;99.90;;;;;;5099931;28;20463;-52
2021/10/18 12:20:40;;;;;;;8.40;7.60;;;18.30;99.90;;;;;;5099727;28;20820;-52
2021/10/18 12:23:09;;;;;;;11.13;7.67;;;18.20;99.90;;;;;;5099597;28;20514;-52
2021/10/18 12:25:38;;;;;;;11.30;8.40;;;18.10;99.90;;;;;;5099569;28;20510;-46
2021/10/18 12:28:25;;;;;;;12.13;7.80;;;17.70;99.90;;;;;;5099634;28;20586;-47
2021/10/18 12:30:52;;;;;;;8.67;7.50;;;17.10;99.90;;;;;;5099858;28;20721;-48
2021/10/18 12:33:32;;;;;;;8.40;7.57;;;17.00;99.90;;;;;;5099366;28;20456;-47
2021/10/18 12:36:02;;;;;;;8.27;6.50;;;17.10;99.90;;;;;;5099290;28;20510;-48
2021/10/18 12:38:30;;;;;;;8.83;7.87;;;17.30;99.90;;;;;;5099291;28;20452;-52
2021/10/18 12:41:08;;;;;;;7.30;6.60;;;17.30;99.90;;;;;;5117147;28;20461;-49
2021/10/18 12:43:40;;;;;;;9.60;6.90;;;17.50;99.90;;;;;;5119616;28;20512;-49
2021/10/18 12:46:21;;;;;;;7.40;6.70;;;17.30;99.90;;;;;;5120279;28;20481;-47
2021/10/18 12:49:04;;;;;;;6.87;6.30;;;17.30;99.90;;;;;;5119219;28;20526;-47
2021/10/18 12:51:32;;;;;;;7.40;6.70;;;17.60;99.90;;;;;;5119704;28;20491;-49
2021/10/18 12:54:19;;;;;;;9.00;7.47;;;18.20;99.90;;;;;;5119390;28;20463;-52
2021/10/18 12:57:00;;;;;;;7.53;6.93;;;18.00;99.90;;;;;;5119270;28;20459;-48
2021/10/18 12:59:31;;;;;;;7.73;7.00;;;17.40;99.90;;;;;;5119296;28;20459;-49
2021/10/18 13:02:17;;;;;;;9.00;7.60;;;17.00;99.90;;;;;;5103128;28;20468;-48
2021/10/18 13:05:09;;;;;;;7.40;6.70;;;17.00;99.90;;;;;;5098758;28;20484;-48
2021/10/18 13:07:37;;;;;;;8.07;7.37;;;17.30;99.90;;;;;;5098736;28;20826;-49
2021/10/18 13:10:11;;;;;;;8.50;7.43;;;17.60;99.90;;;;;;5098961;28;20504;-51
2021/10/18 13:12:38;;;;;;;9.90;8.93;;;17.60;99.90;;;;;;5098778;28;20890;-46
2021/10/18 13:15:09;;;;;;;8.97;8.13;;;17.10;99.90;;;;;;5098734;28;20879;-46
2021/10/18 13:17:39;;;;;;;9.03;8.10;;;17.00;99.90;;;;;;5098089;28;20981;-49
2021/10/18 13:20:09;;;;;;;9.33;8.27;;;17.10;99.90;;;;;;5098848;28;20464;-47
2021/10/18 13:22:38;;;;;;;8.07;6.87;;;17.00;99.90;;;;;;5098869;28;20559;-47
2021/10/18 13:25:08;;;;;;;10.10;8.07;;;17.10;99.90;;;;;;5098559;28;20492;-47
2021/10/18 13:27:38;;;;;;;9.83;8.93;;;17.10;99.90;;;;;;5098398;28;20524;-50
2021/10/18 13:30:11;;;;;;;10.40;8.23;;;16.90;99.90;;;;;;5098292;28;20494;-46
2021/10/18 13:32:38;;;;;;;9.20;8.30;;;16.70;99.90;;;;;;5098546;28;20460;-46
2021/10/18 13:35:07;;;;;;;8.30;7.60;;;16.60;99.90;;;;;;5097852;28;20496;-48
2021/10/18 13:37:34;;;;;;;9.33;7.93;;;16.30;99.90;;;;;;5098110;28;20933;-46
2021/10/18 13:40:01;;;;;;;8.77;7.97;;;16.20;99.90;;;;;;5110597;27;20488;-48
2021/10/18 13:42:31;;;;;;;12.40;7.90;;;16.00;99.90;;;;;;5128120;27;20450;-46
2021/10/18 13:44:58;;;;;;;11.40;7.97;;;16.00;99.90;;;;;;5128333;27;20454;-46
2021/10/18 13:47:26;;;;;;;8.87;7.93;;;16.00;99.90;;;;;;5124044;27;20507;-46
2021/10/18 13:49:53;;;;;;;9.33;8.30;;;15.90;99.90;;;;;;5127498;27;20494;-48
2021/10/18 13:52:20;;;;;;;10.17;8.63;;;15.80;99.90;;;;;;5128769;27;20799;-55
2021/10/18 13:54:50;;;;;;;10.37;9.07;;;15.70;99.90;;;;;;5127306;27;20525;-49
2021/10/18 13:57:17;;;;;;;11.63;9.63;;;15.60;99.90;;;;;;5127020;27;20458;-46
2021/10/18 13:59:47;;;;;;;11.27;9.67;;;15.60;99.90;;;;;;5128785;27;20494;-46
2021/10/18 14:02:15;;;;;;;14.43;10.77;;;15.60;99.90;;;;;;5114316;28;20517;-50